PH-0036 weather

SM Megamall (Building A) Heliport
Manila, Philippines

Public forecast

Using degrees Celsius for public forecast. Weather courtesy of forecast.io.

METAR (pilot weather report)

Closest report is Ninoy Aquino International Airport, 5.2 nm (9.6 km) SSW. Retrieved 2019/07/18 11:00 UTC (3 minutes ago):

RPLL 181100Z 23004KT 9000 -RA SCT020 OVC090 27/25 Q1005 NOSIG RMK A2968

TAF (pilot weather forecast)

Closest forecast is Ninoy Aquino International Airport, 5.2 nm (9.6 km) SSW. Retrieved 2019/07/18 06:00 UTC (5 hours ago):

TAF RPLL 180500Z 1806/1912 24008KT 9999 SCT023 BKN090 TX30/1806Z TN26/1822Z TEMPO 1806/1812 26014KT 7000 RA SCT020 OVC080 TEMPO 1812/1818 22010KT 8000 -SHRA SCT023 OVC090